Terminal Aerodrome Forecast
Issued by NWS

Home | Current Version | Previous Version | Text Only | Print | Product List | Glossary On
Versions: 1 2 3 4 5 6 7 8 9 10 11 12 13 14 15 16 17 18 19 20 21 22 23 24 25 26 27 28 29 30 31 32
165
FTUS41 KCAR 111120
TAFPQI
TAF
KPQI 111120Z 1112/1212 VRB03KT P6SM SCT035
     FM111700 27006KT P6SM BKN040
     FM120000 27004KT P6SM BKN050 OVC200
     FM120300 VRB03KT P6SM BKN090 OVC150
     FM121100 11006KT 6SM -SN OVC045=

USA.gov is the U.S. government's official web portal to all federal, state and local government web resources and services.